< Cyclone 200404 2004 Season Cyclone 200406 >
Cyclone 200405 (MONTY)
General InformationTrack Information on Google MapsDetailed Wind InformationList of All Images || ResourceGoogle EarthGE AnimationAtom FeedGeoJSON
Detalied Best Track (Time Zone = UTC)
Year Month Day Hour Lat. Long. Pressure (hPa) Wind (kt) Class Image Chart
2004 2 25 06 -17.7 124.5 1002 15 2 Image --
2004 2 26 00 -17.6 123.2 1003 15 2 Image --
2004 2 26 06 -17.9 122.6 1002 15 2 Image --
2004 2 26 12 -18.2 121.9 1002 15 2 Image --
2004 2 26 18 -18.5 121.2 1000 20 2 Image --
2004 2 27 00 -18.7 120.4 999 25 2 Image --
2004 2 27 03 -18.8 120.1 997 25 2 Image --
2004 2 27 06 -19.0 119.9 995 30 2 Image --
2004 2 27 09 -19.1 119.8 992 35 3 Image --
2004 2 27 12 -19.1 119.6 990 35 3 Image --
2004 2 27 15 -19.1 119.4 988 40 3 Image --
2004 2 27 18 -19.1 119.2 985 40 3 Image --
2004 2 27 21 -19.1 118.9 982 45 3 Image --
2004 2 28 00 -19.1 118.5 980 50 4 Image --
2004 2 28 03 -19.1 118.2 975 55 4 Image --
2004 2 28 06 -19.1 117.8 970 60 4 Image --
2004 2 28 09 -19.0 117.6 965 70 5 Image --
2004 2 28 12 -18.9 117.3 965 75 5 Image --
2004 2 28 15 -18.8 117.1 960 80 5 Image --
2004 2 28 18 -18.9 116.8 955 80 5 Image --
2004 2 28 21 -19.0 116.6 950 85 5 Image --
2004 2 29 00 -19.1 116.3 950 85 5 Image --
2004 2 29 03 -19.2 116.0 945 90 5 Image --
2004 2 29 06 -19.4 115.8 940 95 5 Image --
2004 2 29 09 -19.6 115.7 935 100 5 Image --
2004 2 29 12 -19.8 115.5 935 100 5 Image --
2004 2 29 15 -19.9 115.3 935 100 5 Image --
2004 2 29 18 -20.0 115.2 935 95 5 Image --
2004 2 29 21 -20.0 115.2 940 90 5 Image --
2004 3 1 00 -20.1 115.3 945 90 5 Image --
2004 3 1 03 -20.3 115.3 950 85 5 Image --
2004 3 1 06 -20.5 115.5 955 80 5 Image --
2004 3 1 09 -20.8 115.6 955 75 5 Image --
2004 3 1 12 -20.9 115.8 955 75 5 Image --
2004 3 1 15 -21.0 115.9 960 70 5 Image --
2004 3 1 18 -21.1 116.0 965 65 5 Image --
2004 3 1 21 -21.3 116.1 970 65 5 Image --
2004 3 2 00 -21.5 116.3 975 60 4 Image --
2004 3 2 03 -21.9 116.5 975 55 4 Image --
2004 3 2 06 -22.3 116.7 980 55 4 Image --
2004 3 2 09 -22.8 116.9 985 50 4 Image --
2004 3 2 12 -23.1 117.1 988 45 3 Image --
2004 3 2 15 -23.5 117.3 992 40 3 Image --
2004 3 2 18 -24.0 117.6 995 35 3 Image --
2004 3 2 21 -24.6 117.8 998 30 2 Image --
2004 3 3 00 -25.3 118.1 1000 25 2 Image --
< Cyclone 200404 2004 Season Cyclone 200406 >

Help